sensor_id;sensor_type;location;lat;lon;timestamp;temperature;humidity
4820;DHT22;2424;49.696;6.630;2022-11-15T00:01:35;11.00;99.90
4820;DHT22;2424;49.696;6.630;2022-11-15T00:06:58;11.00;99.90
4820;DHT22;2424;49.696;6.630;2022-11-15T00:12:20;11.00;99.90
4820;DHT22;2424;49.696;6.630;2022-11-15T00:17:42;11.00;99.90
4820;DHT22;2424;49.696;6.630;2022-11-15T00:23:06;11.10;99.90
4820;DHT22;2424;49.696;6.630;2022-11-15T00:28:28;11.20;99.90
4820;DHT22;2424;49.696;6.630;2022-11-15T00:33:50;11.30;99.90
4820;DHT22;2424;49.696;6.630;2022-11-15T00:39:13;11.30;99.90
4820;DHT22;2424;49.696;6.630;2022-11-15T00:44:35;11.20;99.90
4820;DHT22;2424;49.696;6.630;2022-11-15T00:49:58;11.20;99.90
4820;DHT22;2424;49.696;6.630;2022-11-15T00:55:21;11.20;99.90
4820;DHT22;2424;49.696;6.630;2022-11-15T01:00:43;11.20;99.90
4820;DHT22;2424;49.696;6.630;2022-11-15T01:06:06;11.20;99.90
4820;DHT22;2424;49.696;6.630;2022-11-15T01:11:29;11.30;99.90
4820;DHT22;2424;49.696;6.630;2022-11-15T01:16:51;11.40;99.90
4820;DHT22;2424;49.696;6.630;2022-11-15T01:22:13;11.30;99.90
4820;DHT22;2424;49.696;6.630;2022-11-15T01:27:36;11.30;99.90
4820;DHT22;2424;49.696;6.630;2022-11-15T01:32:58;11.30;99.90
4820;DHT22;2424;49.696;6.630;2022-11-15T01:38:22;11.20;99.90
4820;DHT22;2424;49.696;6.630;2022-11-15T01:43:47;11.30;99.90
4820;DHT22;2424;49.696;6.630;2022-11-15T01:49:12;11.30;99.90
4820;DHT22;2424;49.696;6.630;2022-11-15T01:54:36;11.20;99.90
4820;DHT22;2424;49.696;6.630;2022-11-15T02:00:00;11.20;99.90
4820;DHT22;2424;49.696;6.630;2022-11-15T02:05:24;11.20;99.90
4820;DHT22;2424;49.696;6.630;2022-11-15T02:10:46;11.40;99.90
4820;DHT22;2424;49.696;6.630;2022-11-15T02:16:15;11.40;99.90
4820;DHT22;2424;49.696;6.630;2022-11-15T02:21:44;11.40;99.90
4820;DHT22;2424;49.696;6.630;2022-11-15T02:33:25;11.40;99.90
4820;DHT22;2424;49.696;6.630;2022-11-15T02:38:56;11.30;99.90
4820;DHT22;2424;49.696;6.630;2022-11-15T02:44:24;11.20;99.90
4820;DHT22;2424;49.696;6.630;2022-11-15T02:49:52;11.20;99.90
4820;DHT22;2424;49.696;6.630;2022-11-15T02:55:29;11.10;99.90
4820;DHT22;2424;49.696;6.630;2022-11-15T03:00:58;11.10;99.90
4820;DHT22;2424;49.696;6.630;2022-11-15T03:06:26;11.20;99.90
4820;DHT22;2424;49.696;6.630;2022-11-15T03:11:55;11.10;99.90
4820;DHT22;2424;49.696;6.630;2022-11-15T03:17:22;11.10;99.90
4820;DHT22;2424;49.696;6.630;2022-11-15T03:22:48;11.10;99.90
4820;DHT22;2424;49.696;6.630;2022-11-15T03:28:15;11.00;99.90
4820;DHT22;2424;49.696;6.630;2022-11-15T03:33:39;11.00;99.90
4820;DHT22;2424;49.696;6.630;2022-11-15T03:39:06;10.90;99.90
4820;DHT22;2424;49.696;6.630;2022-11-15T03:44:36;10.90;99.90
4820;DHT22;2424;49.696;6.630;2022-11-15T03:50:08;10.90;99.90
4820;DHT22;2424;49.696;6.630;2022-11-15T03:55:33;10.80;99.90
4820;DHT22;2424;49.696;6.630;2022-11-15T04:00:55;10.80;99.90
4820;DHT22;2424;49.696;6.630;2022-11-15T04:06:19;10.70;99.90
4820;DHT22;2424;49.696;6.630;2022-11-15T04:11:42;10.60;99.90
4820;DHT22;2424;49.696;6.630;2022-11-15T04:17:04;10.60;99.90
4820;DHT22;2424;49.696;6.630;2022-11-15T04:22:26;10.60;99.90
4820;DHT22;2424;49.696;6.630;2022-11-15T04:28:06;10.60;99.90
4820;DHT22;2424;49.696;6.630;2022-11-15T04:33:28;10.60;99.90
4820;DHT22;2424;49.696;6.630;2022-11-15T04:38:50;10.60;99.90
4820;DHT22;2424;49.696;6.630;2022-11-15T04:44:13;10.60;99.90
4820;DHT22;2424;49.696;6.630;2022-11-15T04:49:36;10.50;99.90
4820;DHT22;2424;49.696;6.630;2022-11-15T04:54:58;10.50;99.90
4820;DHT22;2424;49.696;6.630;2022-11-15T05:00:22;10.60;99.90
4820;DHT22;2424;49.696;6.630;2022-11-15T05:05:44;10.60;99.90
4820;DHT22;2424;49.696;6.630;2022-11-15T05:11:06;10.60;99.90
4820;DHT22;2424;49.696;6.630;2022-11-15T05:16:30;10.60;99.90
4820;DHT22;2424;49.696;6.630;2022-11-15T05:21:52;10.60;99.90
4820;DHT22;2424;49.696;6.630;2022-11-15T05:27:14;10.60;99.90
4820;DHT22;2424;49.696;6.630;2022-11-15T05:32:37;10.60;99.90
4820;DHT22;2424;49.696;6.630;2022-11-15T05:37:59;10.50;99.90
4820;DHT22;2424;49.696;6.630;2022-11-15T05:43:22;10.50;99.90
4820;DHT22;2424;49.696;6.630;2022-11-15T05:48:49;10.40;99.90
4820;DHT22;2424;49.696;6.630;2022-11-15T05:54:11;10.40;99.90
4820;DHT22;2424;49.696;6.630;2022-11-15T05:59:35;10.30;99.90
4820;DHT22;2424;49.696;6.630;2022-11-15T06:05:01;10.30;99.90
4820;DHT22;2424;49.696;6.630;2022-11-15T06:10:23;10.30;99.90
4820;DHT22;2424;49.696;6.630;2022-11-15T06:15:45;10.30;99.90
4820;DHT22;2424;49.696;6.630;2022-11-15T06:21:15;10.20;99.90
4820;DHT22;2424;49.696;6.630;2022-11-15T06:26:37;10.20;99.90
4820;DHT22;2424;49.696;6.630;2022-11-15T06:31:58;10.20;99.90
4820;DHT22;2424;49.696;6.630;2022-11-15T06:37:22;10.10;99.90
4820;DHT22;2424;49.696;6.630;2022-11-15T06:42:44;10.00;99.90
4820;DHT22;2424;49.696;6.630;2022-11-15T06:48:06;10.00;99.90
4820;DHT22;2424;49.696;6.630;2022-11-15T06:53:30;9.90;99.90
4820;DHT22;2424;49.696;6.630;2022-11-15T06:58:52;9.90;99.90
4820;DHT22;2424;49.696;6.630;2022-11-15T07:04:14;9.90;99.90
4820;DHT22;2424;49.696;6.630;2022-11-15T07:09:37;9.80;99.90
4820;DHT22;2424;49.696;6.630;2022-11-15T07:14:59;9.80;99.90
4820;DHT22;2424;49.696;6.630;2022-11-15T07:20:21;9.80;99.90
4820;DHT22;2424;49.696;6.630;2022-11-15T07:25:45;9.80;99.90
4820;DHT22;2424;49.696;6.630;2022-11-15T07:31:10;9.80;99.90
4820;DHT22;2424;49.696;6.630;2022-11-15T07:36:32;9.80;99.90
4820;DHT22;2424;49.696;6.630;2022-11-15T07:41:55;9.80;99.90
4820;DHT22;2424;49.696;6.630;2022-11-15T07:47:31;9.80;99.90
4820;DHT22;2424;49.696;6.630;2022-11-15T07:52:54;9.80;99.90
4820;DHT22;2424;49.696;6.630;2022-11-15T07:58:18;9.80;99.90
4820;DHT22;2424;49.696;6.630;2022-11-15T08:03:40;9.90;99.90
4820;DHT22;2424;49.696;6.630;2022-11-15T08:09:02;9.90;99.90
4820;DHT22;2424;49.696;6.630;2022-11-15T08:14:27;9.90;99.90
4820;DHT22;2424;49.696;6.630;2022-11-15T08:19:49;9.90;99.90
4820;DHT22;2424;49.696;6.630;2022-11-15T08:25:11;10.00;99.90
4820;DHT22;2424;49.696;6.630;2022-11-15T08:30:37;10.00;99.90
4820;DHT22;2424;49.696;6.630;2022-11-15T08:36:02;10.00;99.90
4820;DHT22;2424;49.696;6.630;2022-11-15T08:41:27;10.10;99.90
4820;DHT22;2424;49.696;6.630;2022-11-15T08:46:51;10.10;99.90
4820;DHT22;2424;49.696;6.630;2022-11-15T08:52:14;10.20;99.90
4820;DHT22;2424;49.696;6.630;2022-11-15T08:57:35;10.20;99.90
4820;DHT22;2424;49.696;6.630;2022-11-15T09:02:59;10.30;99.90
4820;DHT22;2424;49.696;6.630;2022-11-15T09:08:21;10.40;99.90
4820;DHT22;2424;49.696;6.630;2022-11-15T09:13:43;10.50;99.90
4820;DHT22;2424;49.696;6.630;2022-11-15T09:19:06;10.60;99.90
4820;DHT22;2424;49.696;6.630;2022-11-15T09:24:28;10.60;99.90
4820;DHT22;2424;49.696;6.630;2022-11-15T09:29:50;10.70;99.90
4820;DHT22;2424;49.696;6.630;2022-11-15T09:35:13;10.90;99.90
4820;DHT22;2424;49.696;6.630;2022-11-15T09:40:36;11.00;99.90
4820;DHT22;2424;49.696;6.630;2022-11-15T09:46:09;11.10;99.90
4820;DHT22;2424;49.696;6.630;2022-11-15T09:51:38;11.20;99.90
4820;DHT22;2424;49.696;6.630;2022-11-15T09:57:11;11.30;99.90
4820;DHT22;2424;49.696;6.630;2022-11-15T10:02:47;11.40;99.90
4820;DHT22;2424;49.696;6.630;2022-11-15T10:08:45;11.50;99.90
4820;DHT22;2424;49.696;6.630;2022-11-15T10:14:11;11.50;99.90
4820;DHT22;2424;49.696;6.630;2022-11-15T10:19:39;11.70;99.90
4820;DHT22;2424;49.696;6.630;2022-11-15T10:25:16;11.80;99.90
4820;DHT22;2424;49.696;6.630;2022-11-15T10:30:41;11.80;99.90
4820;DHT22;2424;49.696;6.630;2022-11-15T10:36:23;11.90;99.90
4820;DHT22;2424;49.696;6.630;2022-11-15T10:41:47;12.10;99.90
4820;DHT22;2424;49.696;6.630;2022-11-15T10:47:31;12.20;99.90
4820;DHT22;2424;49.696;6.630;2022-11-15T10:52:54;12.20;99.90
4820;DHT22;2424;49.696;6.630;2022-11-15T10:58:27;12.50;99.90
4820;DHT22;2424;49.696;6.630;2022-11-15T11:03:59;12.60;99.90
4820;DHT22;2424;49.696;6.630;2022-11-15T11:09:31;12.70;99.90
4820;DHT22;2424;49.696;6.630;2022-11-15T11:14:54;12.90;99.90
4820;DHT22;2424;49.696;6.630;2022-11-15T11:20:22;13.00;99.90
4820;DHT22;2424;49.696;6.630;2022-11-15T11:25:51;13.10;99.90
4820;DHT22;2424;49.696;6.630;2022-11-15T11:31:29;13.40;99.90
4820;DHT22;2424;49.696;6.630;2022-11-15T11:36:58;13.40;99.90
4820;DHT22;2424;49.696;6.630;2022-11-15T11:42:29;13.30;99.90
4820;DHT22;2424;49.696;6.630;2022-11-15T11:48:08;13.20;99.90
4820;DHT22;2424;49.696;6.630;2022-11-15T11:53:39;13.30;99.90
4820;DHT22;2424;49.696;6.630;2022-11-15T11:59:07;13.30;99.90
4820;DHT22;2424;49.696;6.630;2022-11-15T12:04:37;13.20;99.90
4820;DHT22;2424;49.696;6.630;2022-11-15T12:10:04;13.20;99.90
4820;DHT22;2424;49.696;6.630;2022-11-15T12:15:29;13.30;99.90
4820;DHT22;2424;49.696;6.630;2022-11-15T12:20:58;13.50;99.90
4820;DHT22;2424;49.696;6.630;2022-11-15T12:26:23;13.40;99.90
4820;DHT22;2424;49.696;6.630;2022-11-15T12:31:50;13.60;99.90
4820;DHT22;2424;49.696;6.630;2022-11-15T12:37:33;14.30;99.90
4820;DHT22;2424;49.696;6.630;2022-11-15T12:43:01;14.40;99.90
4820;DHT22;2424;49.696;6.630;2022-11-15T12:48:57;14.10;99.90
4820;DHT22;2424;49.696;6.630;2022-11-15T12:54:56;14.30;99.90
4820;DHT22;2424;49.696;6.630;2022-11-15T13:00:43;14.10;99.90
4820;DHT22;2424;49.696;6.630;2022-11-15T13:06:33;13.90;99.90
4820;DHT22;2424;49.696;6.630;2022-11-15T13:11:54;13.80;99.90
4820;DHT22;2424;49.696;6.630;2022-11-15T13:17:36;13.70;99.90
4820;DHT22;2424;49.696;6.630;2022-11-15T13:23:06;13.70;99.90
4820;DHT22;2424;49.696;6.630;2022-11-15T13:28:33;13.80;99.90
4820;DHT22;2424;49.696;6.630;2022-11-15T13:34:02;13.80;99.90
4820;DHT22;2424;49.696;6.630;2022-11-15T13:39:30;13.90;99.90
4820;DHT22;2424;49.696;6.630;2022-11-15T13:44:58;13.90;99.90
4820;DHT22;2424;49.696;6.630;2022-11-15T13:50:21;13.80;99.90
4820;DHT22;2424;49.696;6.630;2022-11-15T13:55:45;13.70;99.90
4820;DHT22;2424;49.696;6.630;2022-11-15T14:01:15;13.60;99.90
4820;DHT22;2424;49.696;6.630;2022-11-15T14:06:45;13.50;99.90
4820;DHT22;2424;49.696;6.630;2022-11-15T14:12:29;13.50;99.90
4820;DHT22;2424;49.696;6.630;2022-11-15T14:17:53;13.50;99.90
4820;DHT22;2424;49.696;6.630;2022-11-15T14:23:26;13.40;99.90
4820;DHT22;2424;49.696;6.630;2022-11-15T14:28:48;13.40;99.90
4820;DHT22;2424;49.696;6.630;2022-11-15T14:34:11;13.40;99.90
4820;DHT22;2424;49.696;6.630;2022-11-15T14:39:33;13.30;99.90
4820;DHT22;2424;49.696;6.630;2022-11-15T14:44:55;13.30;99.90
4820;DHT22;2424;49.696;6.630;2022-11-15T14:50:22;13.20;99.90
4820;DHT22;2424;49.696;6.630;2022-11-15T14:55:44;13.20;99.90
4820;DHT22;2424;49.696;6.630;2022-11-15T15:01:12;13.20;99.90
4820;DHT22;2424;49.696;6.630;2022-11-15T15:06:36;13.10;99.90
4820;DHT22;2424;49.696;6.630;2022-11-15T15:11:58;13.10;99.90
4820;DHT22;2424;49.696;6.630;2022-11-15T15:17:20;13.10;99.90
4820;DHT22;2424;49.696;6.630;2022-11-15T15:22:43;13.10;99.90
4820;DHT22;2424;49.696;6.630;2022-11-15T15:28:06;13.00;99.90
4820;DHT22;2424;49.696;6.630;2022-11-15T15:33:27;13.00;99.90
4820;DHT22;2424;49.696;6.630;2022-11-15T15:38:51;13.00;99.90
4820;DHT22;2424;49.696;6.630;2022-11-15T15:44:13;13.00;99.90
4820;DHT22;2424;49.696;6.630;2022-11-15T15:49:35;12.90;99.90
4820;DHT22;2424;49.696;6.630;2022-11-15T15:54:59;12.90;99.90
4820;DHT22;2424;49.696;6.630;2022-11-15T16:00:23;12.90;99.90
4820;DHT22;2424;49.696;6.630;2022-11-15T16:05:45;12.90;99.90
4820;DHT22;2424;49.696;6.630;2022-11-15T16:11:09;12.80;99.90
4820;DHT22;2424;49.696;6.630;2022-11-15T16:16:30;12.80;99.90
4820;DHT22;2424;49.696;6.630;2022-11-15T16:21:52;12.70;99.90
4820;DHT22;2424;49.696;6.630;2022-11-15T16:27:17;12.70;99.90
4820;DHT22;2424;49.696;6.630;2022-11-15T16:32:40;12.70;99.90
4820;DHT22;2424;49.696;6.630;2022-11-15T16:38:01;12.70;99.90
4820;DHT22;2424;49.696;6.630;2022-11-15T16:43:25;12.60;99.90
4820;DHT22;2424;49.696;6.630;2022-11-15T16:48:47;12.80;99.90
4820;DHT22;2424;49.696;6.630;2022-11-15T16:54:09;12.80;99.90
4820;DHT22;2424;49.696;6.630;2022-11-15T16:59:32;12.70;99.90
4820;DHT22;2424;49.696;6.630;2022-11-15T17:04:54;12.70;99.90
4820;DHT22;2424;49.696;6.630;2022-11-15T17:10:16;12.70;99.90
4820;DHT22;2424;49.696;6.630;2022-11-15T17:15:40;12.60;99.90
4820;DHT22;2424;49.696;6.630;2022-11-15T17:21:06;12.60;99.90
4820;DHT22;2424;49.696;6.630;2022-11-15T17:26:28;12.50;99.90
4820;DHT22;2424;49.696;6.630;2022-11-15T17:31:51;12.50;99.90
4820;DHT22;2424;49.696;6.630;2022-11-15T17:37:13;12.50;99.90
4820;DHT22;2424;49.696;6.630;2022-11-15T17:42:35;12.50;99.90
4820;DHT22;2424;49.696;6.630;2022-11-15T17:47:58;12.50;99.90
4820;DHT22;2424;49.696;6.630;2022-11-15T17:53:20;12.50;99.90
4820;DHT22;2424;49.696;6.630;2022-11-15T17:58:47;12.40;99.90
4820;DHT22;2424;49.696;6.630;2022-11-15T18:04:10;12.40;99.90
4820;DHT22;2424;49.696;6.630;2022-11-15T18:09:34;12.40;99.90
4820;DHT22;2424;49.696;6.630;2022-11-15T18:14:56;12.30;99.90
4820;DHT22;2424;49.696;6.630;2022-11-15T18:20:21;12.30;99.90
4820;DHT22;2424;49.696;6.630;2022-11-15T18:25:50;12.30;99.90
4820;DHT22;2424;49.696;6.630;2022-11-15T18:31:13;12.30;99.90
4820;DHT22;2424;49.696;6.630;2022-11-15T18:36:37;12.30;99.90
4820;DHT22;2424;49.696;6.630;2022-11-15T18:41:59;12.30;99.90
4820;DHT22;2424;49.696;6.630;2022-11-15T18:47:21;12.20;99.90
4820;DHT22;2424;49.696;6.630;2022-11-15T18:52:45;12.20;99.90
4820;DHT22;2424;49.696;6.630;2022-11-15T18:58:07;12.10;99.90
4820;DHT22;2424;49.696;6.630;2022-11-15T19:03:31;12.10;99.90
4820;DHT22;2424;49.696;6.630;2022-11-15T19:08:56;12.10;99.90
4820;DHT22;2424;49.696;6.630;2022-11-15T19:14:19;12.10;99.90
4820;DHT22;2424;49.696;6.630;2022-11-15T19:19:43;12.10;99.90
4820;DHT22;2424;49.696;6.630;2022-11-15T19:25:07;12.10;99.90
4820;DHT22;2424;49.696;6.630;2022-11-15T19:30:32;12.10;99.90
4820;DHT22;2424;49.696;6.630;2022-11-15T19:35:59;12.10;99.90
4820;DHT22;2424;49.696;6.630;2022-11-15T19:41:26;12.10;99.90
4820;DHT22;2424;49.696;6.630;2022-11-15T19:46:48;12.20;99.90
4820;DHT22;2424;49.696;6.630;2022-11-15T19:52:10;12.20;99.90
4820;DHT22;2424;49.696;6.630;2022-11-15T19:57:33;12.20;99.90
4820;DHT22;2424;49.696;6.630;2022-11-15T20:02:55;12.10;99.90
4820;DHT22;2424;49.696;6.630;2022-11-15T20:08:17;12.10;99.90
4820;DHT22;2424;49.696;6.630;2022-11-15T20:13:40;12.10;99.90
4820;DHT22;2424;49.696;6.630;2022-11-15T20:19:02;12.10;99.90
4820;DHT22;2424;49.696;6.630;2022-11-15T20:24:27;12.00;99.90
4820;DHT22;2424;49.696;6.630;2022-11-15T20:29:52;12.00;99.90
4820;DHT22;2424;49.696;6.630;2022-11-15T20:35:15;12.00;99.90
4820;DHT22;2424;49.696;6.630;2022-11-15T20:40:38;12.00;99.90
4820;DHT22;2424;49.696;6.630;2022-11-15T20:46:01;12.00;99.90
4820;DHT22;2424;49.696;6.630;2022-11-15T20:51:25;12.00;99.90
4820;DHT22;2424;49.696;6.630;2022-11-15T20:56:47;12.00;99.90
4820;DHT22;2424;49.696;6.630;2022-11-15T21:02:12;12.00;99.90
4820;DHT22;2424;49.696;6.630;2022-11-15T21:07:34;12.00;99.90
4820;DHT22;2424;49.696;6.630;2022-11-15T21:12:56;12.00;99.90
4820;DHT22;2424;49.696;6.630;2022-11-15T21:18:19;11.90;99.90
4820;DHT22;2424;49.696;6.630;2022-11-15T21:23:41;11.90;99.90
4820;DHT22;2424;49.696;6.630;2022-11-15T21:29:06;11.90;99.90
4820;DHT22;2424;49.696;6.630;2022-11-15T21:34:29;11.90;99.90
4820;DHT22;2424;49.696;6.630;2022-11-15T21:39:51;11.90;99.90
4820;DHT22;2424;49.696;6.630;2022-11-15T21:45:13;11.90;99.90
4820;DHT22;2424;49.696;6.630;2022-11-15T21:50:37;11.90;99.90
4820;DHT22;2424;49.696;6.630;2022-11-15T21:55:59;11.90;99.90
4820;DHT22;2424;49.696;6.630;2022-11-15T22:01:23;11.90;99.90
4820;DHT22;2424;49.696;6.630;2022-11-15T22:07:04;11.90;99.90
4820;DHT22;2424;49.696;6.630;2022-11-15T22:12:26;11.80;99.90
4820;DHT22;2424;49.696;6.630;2022-11-15T22:17:48;11.80;99.90
4820;DHT22;2424;49.696;6.630;2022-11-15T22:23:21;11.80;99.90
4820;DHT22;2424;49.696;6.630;2022-11-15T22:28:43;11.80;99.90
4820;DHT22;2424;49.696;6.630;2022-11-15T22:34:10;11.90;99.90
4820;DHT22;2424;49.696;6.630;2022-11-15T22:39:34;11.80;99.90
4820;DHT22;2424;49.696;6.630;2022-11-15T22:44:56;11.90;99.90
4820;DHT22;2424;49.696;6.630;2022-11-15T22:50:18;11.90;99.90
4820;DHT22;2424;49.696;6.630;2022-11-15T22:55:42;11.90;99.90
4820;DHT22;2424;49.696;6.630;2022-11-15T23:01:06;11.90;99.90
4820;DHT22;2424;49.696;6.630;2022-11-15T23:06:36;11.90;99.90
4820;DHT22;2424;49.696;6.630;2022-11-15T23:11:59;12.00;99.90
4820;DHT22;2424;49.696;6.630;2022-11-15T23:17:38;12.00;99.90
4820;DHT22;2424;49.696;6.630;2022-11-15T23:23:01;12.00;99.90
4820;DHT22;2424;49.696;6.630;2022-11-15T23:28:24;12.00;99.90
4820;DHT22;2424;49.696;6.630;2022-11-15T23:33:46;11.90;99.90
4820;DHT22;2424;49.696;6.630;2022-11-15T23:39:20;11.90;99.90
4820;DHT22;2424;49.696;6.630;2022-11-15T23:44:44;11.90;99.90
4820;DHT22;2424;49.696;6.630;2022-11-15T23:50:07;11.90;99.90
4820;DHT22;2424;49.696;6.630;2022-11-15T23:55:29;11.90;99.90
